Portada
METAR-TAF:

METAR-TAF

Aeropuertos :

Valdez, Alaska, Estados Unidos

latitud: 61-08N, longitud: 146-16W, altitud: 37 m

Observación

El informe se hizo hace 31 minutos, a las 19:56 UTC
Viento calma
Temperatura 1°C
Humedad 55%
Presión 1017 hPa
Visibilidad: 16.1 km
Cielo despejado

METAR: PAVD 231956Z 00000KT 10SM CLR 01/M07 A3004 RMK AO2 SLP172 T00111072 $

Hora: 11:27 (20:27 UTC)

Pronóstico

El informe se hizo hace 2 horas y 50 minutos, a las 17:37 UTC
Pronóstico válido del 23 a las 18 UTC al 24 a las 18 UTC
Viento 2 kt con dirección variable
Visibilidad: 10 km
Nubes dispersas a una altura de 6000 ft

TAF: PAVD 231737Z 2318/2418 VRB02KT P6SM SCT060

Observaciones y pronósticos meteorológicos de más de 4000 aeropuertos (mensajes METAR y TAF).

Los puntos amarillos y rojos representan las estaciones disponibles.

Ponga el ratón en el punto deseado para ver el nombre de la estación.

Haga clic para ver las observaciones y los pronósticos meteorológicos.

Para cambiar el mapa : haga clic en los botones verdes con una cruz de color negro para hacer un zoom, en el botón verde con un guión para alejar o en las flechas verdes para mapas adyacentes.


METAR-TAF: